NMSU Main Campus

2021-06-24 19:20:00

  • imperial
Date Time Air Temperature Relative Humidity Dewpoint Windchill Heat Index Wind Speed Wind Dir. Rain Solar Radiation
2m 2m 3m 3m
US/Mountain F % F F F MPH deg in MJ/m^2
max avg avg
2021-06-23 19:25:00 95.9 18.1 45.7 95.9 95.9 3.0 5.5 2.6 204.6 189.3 0.00 0.0359958
2021-06-23 19:30:00 95.3 18.5 45.9 95.3 95.3 2.2 4.6 3.0 185.1 196.0 0.00 0.0295120
2021-06-23 19:35:00 95.2 19.3 46.9 95.2 95.2 2.2 5.5 2.8 204.7 190.3 0.00 0.0259663
2021-06-23 19:40:00 94.9 20.0 47.6 94.9 94.9 1.5 4.4 2.1 183.6 191.4 0.00 0.0210336
2021-06-23 19:45:00 94.4 20.1 47.3 94.4 94.4 1.0 3.0 1.2 219.8 179.2 0.00 0.0164092
2021-06-23 19:50:00 93.9 20.5 47.5 93.9 93.9 0.0 3.0 0.8 208.2 182.2 0.00 0.0128492
2021-06-23 19:55:00 93.6 20.5 47.1 93.6 93.6 0.0 3.0 1.0 168.6 193.5 0.00 0.0097988
2021-06-23 20:00:00 93.5 20.8 47.5 93.5 93.5 1.5 2.8 0.5 151.5 152.6 0.00 0.0068322
2021-06-23 20:05:00 92.9 20.9 47.1 92.9 92.9 0.0 2.4 0.9 136.5 172.1 0.00 0.0043764
2021-06-23 20:10:00 92.6 21.7 47.8 92.6 92.6 0.0 0.8 0.1 216.3 183.0 0.00 0.0025321
2021-06-23 20:15:00 92.0 21.7 47.3 92.0 92.0 0.0 0.8 0.0 190.6 241.6 0.00 0.0013433
2021-06-23 20:20:00 91.6 22.0 47.4 91.6 91.6 0.0 1.9 0.3 203.1 185.6 0.00 0.0008100
2021-06-23 20:25:00 91.5 22.1 47.5 91.5 91.5 0.0 0.8 0.1 146.6 192.2 0.00 0.0004692
2021-06-23 20:30:00 91.2 22.4 47.5 91.2 91.2 0.0 0.8 0.0 133.6 149.8 0.00 0.0002707
2021-06-23 20:35:00 90.5 23.6 48.4 90.5 90.5 0.0 0.0 0.0 110.9 0.0 0.00 0.0001203
2021-06-23 20:40:00 90.2 24.8 49.5 90.2 90.2 0.0 1.0 0.1 157.5 175.8 0.00 0.0000301
2021-06-23 20:45:00 89.9 25.3 49.7 89.9 89.9 0.0 0.0 0.0 175.7 0.0 0.00 0.0000000
2021-06-23 20:50:00 89.4 25.5 49.5 89.4 89.4 0.0 3.0 0.4 142.1 157.6 0.00 0.0000000
2021-06-23 20:55:00 89.2 26.0 49.9 89.2 89.2 0.8 1.2 0.3 181.8 162.9 0.00 0.0000000
2021-06-23 21:00:00 88.7 27.8 51.3 88.7 88.7 0.0 0.8 0.0 139.7 204.7 0.00 0.0000000
2021-06-23 21:05:00 88.4 27.6 50.7 88.4 88.4 0.0 1.2 0.3 148.1 170.4 0.00 0.0000000
2021-06-23 21:10:00 88.4 27.3 50.5 88.4 88.4 1.7 3.7 1.5 202.6 200.9 0.00 0.0000000
2021-06-23 21:15:00 88.3 25.7 48.8 88.3 88.3 2.8 3.7 1.5 192.3 198.6 0.00 0.0000000
2021-06-23 21:20:00 88.6 25.7 49.0 88.6 88.6 1.5 4.0 2.1 177.5 190.2 0.00 0.0000000
2021-06-23 21:25:00 88.6 25.0 48.3 88.6 88.6 2.2 3.8 1.9 189.7 206.5 0.00 0.0000000
2021-06-23 21:30:00 88.7 25.0 48.4 88.7 88.7 0.0 4.2 1.5 202.2 192.3 0.00 0.0000000
2021-06-23 21:35:00 88.7 25.3 48.8 88.7 88.7 0.0 2.4 0.9 193.0 191.6 0.00 0.0000000
2021-06-23 21:40:00 88.9 25.4 49.0 88.9 88.9 0.0 1.5 0.4 142.4 200.7 0.00 0.0000000
2021-06-23 21:45:00 88.5 25.8 49.0 88.5 88.5 0.0 1.3 0.3 203.7 165.8 0.00 0.0000000
2021-06-23 21:50:00 88.5 25.9 49.1 88.5 88.5 0.0 1.3 0.2 157.0 150.5 0.00 0.0000000
2021-06-23 21:55:00 88.4 26.1 49.2 88.4 88.4 0.0 6.9 1.6 253.3 212.7 0.00 0.0000000
2021-06-23 22:00:00 89.6 24.4 48.4 89.6 89.6 2.6 7.8 4.3 194.5 226.0 0.00 0.0000000
2021-06-23 22:05:00 89.7 24.3 48.5 89.7 89.7 11.7 11.7 5.7 231.0 228.3 0.00 0.0000000
2021-06-23 22:10:00 89.9 23.8 48.1 89.9 89.9 7.1 15.1 9.3 220.8 231.3 0.00 0.0000000
2021-06-23 22:15:00 89.6 24.1 48.1 89.6 89.6 11.2 16.2 9.2 228.9 233.2 0.00 0.0000000
2021-06-23 22:20:00 89.3 24.7 48.5 89.3 89.3 6.7 10.3 7.7 198.6 239.5 0.00 0.0000000
2021-06-23 22:25:00 88.8 24.7 48.1 88.8 88.8 8.0 9.6 5.3 246.3 229.5 0.00 0.0000000
2021-06-23 22:30:00 88.6 26.0 49.3 88.6 88.6 6.2 10.5 7.0 231.7 237.6 0.00 0.0000000
2021-06-23 22:35:00 88.6 25.9 49.2 88.6 88.6 5.3 11.3 5.9 185.4 241.0 0.00 0.0000000
2021-06-23 22:40:00 88.3 26.2 49.3 88.3 88.3 6.0 13.3 7.8 239.3 247.8 0.00 0.0000000
2021-06-23 22:45:00 88.2 26.7 49.7 88.2 88.2 6.9 12.2 7.3 216.1 242.1 0.00 0.0000000
2021-06-23 22:50:00 87.7 27.3 49.8 87.7 87.7 4.9 13.5 8.0 257.7 236.2 0.00 0.0000000
2021-06-23 22:55:00 87.3 27.9 50.2 87.3 87.3 3.0 11.3 6.2 270.2 235.6 0.00 0.0000000
2021-06-23 23:00:00 86.9 28.4 50.3 86.9 86.9 9.0 12.2 7.3 260.8 237.3 0.00 0.0000000
2021-06-23 23:05:00 86.5 28.9 50.4 86.5 86.5 7.8 11.7 7.8 276.5 244.3 0.00 0.0000000
2021-06-23 23:10:00 86.5 28.8 50.3 86.5 86.5 6.5 9.4 6.4 248.7 242.6 0.00 0.0000000
2021-06-23 23:15:00 86.5 28.5 50.1 86.5 86.5 8.7 14.2 7.6 244.0 248.8 0.00 0.0000000
2021-06-23 23:20:00 86.3 28.4 49.8 86.3 86.3 6.3 14.6 7.9 274.7 248.7 0.00 0.0000000
2021-06-23 23:25:00 86.6 28.6 50.3 86.6 86.6 5.1 10.5 6.2 290.6 261.2 0.00 0.0000000
2021-06-23 23:30:00 86.5 27.8 49.4 86.5 86.5 7.4 9.9 6.1 238.3 254.5 0.00 0.0000000
2021-06-23 23:35:00 87.3 26.8 49.0 87.3 87.3 6.3 13.5 8.4 292.1 265.1 0.00 0.0000000
2021-06-23 23:40:00 87.6 26.3 48.8 87.6 87.6 9.4 19.0 9.1 268.4 263.1 0.00 0.0000000
2021-06-23 23:45:00 87.4 26.4 48.7 87.4 87.4 10.5 14.6 7.6 226.3 264.1 0.00 0.0000000
2021-06-23 23:50:00 87.3 27.3 49.5 87.3 87.3 7.1 15.1 8.5 313.8 267.4 0.00 0.0000000
2021-06-23 23:55:00 86.6 27.9 49.6 86.6 86.6 6.2 15.3 9.5 211.3 271.8 0.00 0.0000000
2021-06-24 00:00:00 86.5 29.1 50.5 86.5 86.5 8.7 11.5 7.1 318.5 275.4 0.00 0.0000000
2021-06-24 00:05:00 85.9 29.0 50.0 85.9 85.9 11.3 16.2 8.4 277.2 281.9 0.00 0.0000000
2021-06-24 00:10:00 85.8 29.1 50.0 85.8 85.8 9.0 14.4 9.4 304.7 298.9 0.00 0.0000000
2021-06-24 00:15:00 85.6 29.7 50.3 85.6 85.6 9.4 15.3 10.0 283.4 299.1 0.00 0.0000000
2021-06-24 00:20:00 85.7 29.3 50.1 85.7 85.7 10.8 17.8 10.9 315.2 308.5 0.00 0.0000000
2021-06-24 00:25:00 85.9 29.4 50.3 85.9 85.9 5.5 16.9 10.5 338.1 310.4 0.00 0.0000000
2021-06-24 00:30:00 86.2 28.5 49.7 86.2 86.2 6.2 14.6 9.3 317.7 320.2 0.00 0.0000000
2021-06-24 00:35:00 86.1 28.2 49.3 86.1 86.1 7.1 10.6 7.7 309.6 319.5 0.00 0.0000000
2021-06-24 00:40:00 85.9 28.0 49.0 85.9 85.9 10.3 11.9 8.1 300.9 300.3 0.00 0.0000000
2021-06-24 00:45:00 86.5 27.7 49.3 86.5 86.5 3.5 11.9 7.4 274.9 302.3 0.00 0.0000000
2021-06-24 00:50:00 86.4 27.3 48.7 86.4 86.4 6.0 8.7 5.2 331.3 304.4 0.00 0.0000000
2021-06-24 00:55:00 86.6 26.5 48.2 86.6 86.6 6.7 9.0 5.9 34.1 336.4 0.00 0.0000000
2021-06-24 01:00:00 86.8 26.5 48.3 86.8 86.8 8.0 9.7 5.6 315.6 336.7 0.00 0.0000000
2021-06-24 01:05:00 86.8 26.6 48.4 86.8 86.8 8.5 10.6 7.6 309.8 339.1 0.00 0.0000000
2021-06-24 01:10:00 86.7 26.6 48.3 86.7 86.7 10.1 12.8 6.7 325.4 321.1 0.00 0.0000000
2021-06-24 01:15:00 86.8 26.5 48.3 86.8 86.8 3.5 10.8 5.8 317.0 322.2 0.00 0.0000000
2021-06-24 01:20:00 86.8 26.4 48.3 86.8 86.8 3.7 11.5 6.2 19.7 340.4 0.00 0.0000000
2021-06-24 01:25:00 86.4 27.2 48.7 86.4 86.4 3.5 8.1 4.6 324.5 322.0 0.00 0.0000000
2021-06-24 01:30:00 86.2 26.7 48.0 86.2 86.2 5.6 5.6 1.8 338.2 334.1 0.00 0.0000000
2021-06-24 01:35:00 86.2 26.6 48.0 86.2 86.2 3.1 5.6 3.0 25.6 358.7 0.00 0.0000000
2021-06-24 01:40:00 86.1 26.7 47.9 86.1 86.1 0.0 3.0 0.8 52.5 43.1 0.00 0.0000000
2021-06-24 01:45:00 85.6 28.4 49.1 85.6 85.6 0.0 0.0 0.0 145.5 0.0 0.00 0.0000000
2021-06-24 01:50:00 85.2 29.7 50.0 85.2 85.2 1.3 1.3 0.1 285.7 326.0 0.00 0.0000000
2021-06-24 01:55:00 85.0 27.5 47.8 85.0 85.0 4.0 6.2 4.7 302.4 353.8 0.00 0.0000000
2021-06-24 02:00:00 84.6 28.9 48.8 84.6 84.6 3.5 7.1 4.5 22.5 328.7 0.00 0.0000000
2021-06-24 02:05:00 84.8 28.1 48.2 84.8 84.8 5.3 5.3 3.4 14.8 18.3 0.00 0.0000000
2021-06-24 02:10:00 84.6 28.4 48.3 84.6 84.6 8.5 8.5 3.3 30.0 31.4 0.00 0.0000000
2021-06-24 02:15:00 84.7 28.4 48.3 84.7 84.7 3.7 8.8 5.6 4.4 32.7 0.00 0.0000000
2021-06-24 02:20:00 84.6 28.3 48.2 84.6 84.6 5.1 9.0 4.9 1.7 29.3 0.00 0.0000000
2021-06-24 02:25:00 84.0 29.1 48.4 84.0 84.0 4.7 6.9 4.0 24.9 23.3 0.00 0.0000000
2021-06-24 02:30:00 84.0 29.5 48.8 84.0 84.0 5.5 8.5 4.5 0.0 7.6 0.00 0.0000000
2021-06-24 02:35:00 83.7 29.5 48.6 83.7 83.7 4.2 7.4 5.1 335.6 16.7 0.00 0.0000000
2021-06-24 02:40:00 83.4 29.1 47.9 83.4 83.4 6.9 11.7 6.9 0.0 12.6 0.00 0.0000000
2021-06-24 02:45:00 83.4 29.6 48.4 83.4 83.4 3.8 8.0 5.2 0.0 10.8 0.00 0.0000000
2021-06-24 02:50:00 83.0 29.3 47.8 83.0 83.0 3.8 9.0 6.4 336.9 9.1 0.00 0.0000000
2021-06-24 02:55:00 82.9 29.6 47.9 82.9 82.9 3.7 8.1 4.7 1.7 3.1 0.00 0.0000000
2021-06-24 03:00:00 82.5 30.2 48.1 82.5 82.5 4.0 5.8 3.8 321.3 16.1 0.00 0.0000000
2021-06-24 03:05:00 82.5 29.9 47.8 82.5 82.5 5.5 8.0 3.5 330.3 357.6 0.00 0.0000000
2021-06-24 03:10:00 82.6 29.2 47.2 82.6 82.6 7.4 10.3 4.9 1.3 15.5 0.00 0.0000000
2021-06-24 03:15:00 82.5 29.6 47.6 82.5 82.5 3.1 6.2 4.7 336.0 12.3 0.00 0.0000000
2021-06-24 03:20:00 82.2 30.2 47.9 82.2 82.2 1.7 5.3 2.8 6.9 2.0 0.00 0.0000000
2021-06-24 03:25:00 81.8 30.2 47.5 81.8 81.8 4.4 6.3 4.6 27.1 0.9 0.00 0.0000000
2021-06-24 03:30:00 81.4 30.7 47.6 81.4 81.4 3.8 6.0 3.9 251.5 345.2 0.00 0.0000000
2021-06-24 03:35:00 81.2 31.8 48.3 81.2 81.2 3.8 5.5 3.5 14.4 349.9 0.00 0.0000000
2021-06-24 03:40:00 80.8 31.4 47.7 80.8 80.8 5.5 5.8 3.6 42.0 345.8 0.00 0.0000000
2021-06-24 03:45:00 80.5 31.3 47.3 80.5 80.5 3.5 6.3 3.5 3.9 341.8 0.00 0.0000000
2021-06-24 03:50:00 80.7 31.2 47.5 80.7 80.7 2.2 5.1 2.8 31.1 355.5 0.00 0.0000000
2021-06-24 03:55:00 81.1 30.9 47.5 81.1 81.1 1.5 4.0 1.6 0.8 17.6 0.00 0.0000000
2021-06-24 04:00:00 80.4 32.0 47.8 80.4 80.4 1.3 3.5 1.9 283.0 315.5 0.00 0.0000000
2021-06-24 04:05:00 80.2 33.2 48.6 80.2 80.2 0.0 2.8 1.3 303.5 299.1 0.00 0.0000000
2021-06-24 04:10:00 79.7 34.0 48.9 79.7 79.7 1.7 2.6 0.7 333.1 321.8 0.00 0.0000000
2021-06-24 04:15:00 79.3 33.8 48.3 79.3 79.3 0.0 3.3 1.8 266.3 307.2 0.00 0.0000000
2021-06-24 04:20:00 79.2 32.6 47.3 79.2 79.2 3.7 3.7 1.7 309.2 299.8 0.00 0.0000000
2021-06-24 04:25:00 79.4 32.6 47.4 79.4 79.4 3.1 4.0 2.6 318.4 334.2 0.00 0.0000000
2021-06-24 04:30:00 79.7 32.1 47.3 79.7 79.7 2.4 3.0 1.7 0.1 336.6 0.00 0.0000000
2021-06-24 04:35:00 79.8 33.2 48.3 79.8 79.8 1.5 2.1 0.5 329.5 324.2 0.00 0.0000000
2021-06-24 04:40:00 79.4 33.5 48.2 79.4 79.4 0.0 2.6 0.8 11.6 336.8 0.00 0.0000000
2021-06-24 04:45:00 79.3 33.0 47.7 79.3 79.3 0.0 0.0 0.0 96.8 0.0 0.00 0.0000000
2021-06-24 04:50:00 79.0 33.8 48.1 79.0 79.0 2.1 2.2 0.3 280.9 300.8 0.00 0.0000000
2021-06-24 04:55:00 78.9 33.5 47.7 78.9 78.9 2.4 3.0 1.7 287.1 275.7 0.00 0.0000000
2021-06-24 05:00:00 78.8 33.5 47.7 78.8 78.8 2.1 5.3 1.3 219.0 272.8 0.00 0.0000000
2021-06-24 05:05:00 78.1 35.0 48.2 78.1 78.1 0.0 3.1 1.4 243.9 281.1 0.00 0.0000000
2021-06-24 05:10:00 78.0 34.4 47.6 78.0 78.0 0.0 0.8 0.1 262.3 295.3 0.00 0.0000000
2021-06-24 05:15:00 78.0 34.5 47.8 78.0 78.0 0.0 2.1 0.6 274.3 286.8 0.00 0.0000000
2021-06-24 05:20:00 77.9 35.0 48.0 77.9 77.9 1.5 2.2 0.4 253.6 285.0 0.00 0.0000000
2021-06-24 05:25:00 77.8 35.7 48.5 77.8 77.8 1.7 3.7 1.7 304.1 283.4 0.00 0.0000000
2021-06-24 05:30:00 77.1 38.1 49.7 77.1 77.1 2.4 4.4 3.0 297.1 293.5 0.00 0.0000000
2021-06-24 05:35:00 76.7 38.1 49.2 76.7 76.7 2.4 4.6 2.5 280.0 298.8 0.00 0.0000000
2021-06-24 05:40:00 76.9 35.9 47.8 76.9 76.9 2.4 5.3 3.5 280.2 296.9 0.00 0.0000060
2021-06-24 05:45:00 77.0 36.6 48.5 77.0 77.0 2.8 4.2 2.2 301.1 305.2 0.00 0.0000582
2021-06-24 05:50:00 77.0 36.6 48.4 77.0 77.0 4.7 4.7 2.7 255.8 309.4 0.00 0.0001706
2021-06-24 05:55:00 77.1 36.5 48.4 77.1 77.1 2.4 5.5 2.7 310.5 297.2 0.00 0.0003493
2021-06-24 06:00:00 77.0 35.3 47.5 77.0 77.0 0.8 3.1 1.5 12.5 325.8 0.00 0.0005702
2021-06-24 06:05:00 77.8 34.4 47.5 77.8 77.8 2.8 3.0 1.4 21.1 39.0 0.00 0.0009316
2021-06-24 06:10:00 77.8 34.4 47.5 77.8 77.8 0.0 2.1 0.6 301.6 35.5 0.00 0.0013934
2021-06-24 06:15:00 77.6 34.7 47.6 77.6 77.6 0.0 1.7 0.3 0.8 337.9 0.00 0.0023090
2021-06-24 06:20:00 77.2 35.4 47.7 77.2 77.2 0.0 0.8 0.0 135.6 55.4 0.00 0.0035057
2021-06-24 06:25:00 77.0 36.1 48.0 77.0 77.0 0.0 0.0 0.0 127.5 0.0 0.00 0.0045358
2021-06-24 06:30:00 76.7 36.9 48.3 76.7 76.7 0.0 0.0 0.0 170.7 0.0 0.00 0.0055880
2021-06-24 06:35:00 76.5 37.2 48.4 76.5 76.5 1.2 1.2 0.2 176.2 194.8 0.00 0.0065277
2021-06-24 06:40:00 75.7 41.6 50.7 75.7 75.7 0.0 2.2 0.9 193.6 171.0 0.00 0.0071643
2021-06-24 06:45:00 75.1 42.9 51.0 75.1 75.1 0.0 0.8 0.1 182.1 167.6 0.00 0.0079193
2021-06-24 06:50:00 74.5 43.9 51.1 74.5 74.5 0.8 1.9 0.3 215.9 182.6 0.00 0.0086061
2021-06-24 06:55:00 74.9 44.0 51.5 74.9 74.9 0.0 2.8 1.3 237.0 209.0 0.00 0.0093289
2021-06-24 07:00:00 75.0 44.6 52.0 75.0 75.0 1.3 3.3 2.1 305.1 243.4 0.00 0.0107005
2021-06-24 07:05:00 75.2 43.7 51.6 75.2 75.2 0.0 2.2 0.3 227.4 282.5 0.00 0.0117326
2021-06-24 07:10:00 75.8 41.6 50.8 75.8 75.8 0.0 0.0 0.0 84.4 0.0 0.00 0.0118472
2021-06-24 07:15:00 76.4 40.6 50.8 76.4 76.4 0.0 2.6 0.8 47.5 104.1 0.00 0.0155602
2021-06-24 07:20:00 77.6 36.9 49.2 77.6 77.6 0.0 3.1 1.2 326.3 357.0 0.00 0.0172629
2021-06-24 07:25:00 78.9 35.1 49.1 78.9 78.9 4.0 7.8 3.0 307.0 336.3 0.00 0.0253855
2021-06-24 07:30:00 79.0 34.8 48.8 79.0 79.0 4.0 7.2 4.8 339.1 337.5 0.00 0.0200323
2021-06-24 07:35:00 79.5 34.0 48.6 79.5 79.5 2.2 5.6 3.6 326.6 349.0 0.00 0.0336650
2021-06-24 07:40:00 79.4 34.2 48.8 79.4 79.4 6.2 8.0 4.4 331.3 349.9 0.00 0.0647033
2021-06-24 07:45:00 79.8 34.0 48.9 79.8 79.8 7.8 9.6 5.2 328.5 335.4 0.00 0.0713625
2021-06-24 07:50:00 79.9 34.0 49.0 79.9 79.9 4.4 8.3 5.8 316.5 319.0 0.00 0.0765024
2021-06-24 07:55:00 80.3 33.9 49.3 80.3 80.3 4.6 8.1 4.9 297.4 349.0 0.00 0.0813472
2021-06-24 08:00:00 80.5 34.4 49.9 80.5 80.5 4.4 10.1 5.5 339.6 327.2 0.00 0.0859467
2021-06-24 08:05:00 80.3 34.2 49.6 80.3 80.3 4.2 10.5 5.7 335.8 316.7 0.00 0.0909275
2021-06-24 08:10:00 80.8 34.7 50.3 80.8 80.8 3.7 8.1 5.4 285.9 325.8 0.00 0.0960861
2021-06-24 08:15:00 81.1 33.2 49.4 81.1 81.1 5.8 7.2 5.0 304.3 325.5 0.00 0.1010308
2021-06-24 08:20:00 81.3 33.7 49.9 81.3 81.3 3.8 7.1 4.8 305.4 329.7 0.00 0.1058651
2021-06-24 08:25:00 81.3 32.6 49.2 81.3 81.3 5.1 7.1 5.0 7.0 316.2 0.00 0.1104367
2021-06-24 08:30:00 81.6 33.3 50.0 81.6 81.6 4.9 6.3 4.4 272.7 315.9 0.00 0.1149158
2021-06-24 08:35:00 81.6 35.5 51.7 81.6 81.6 2.8 8.8 5.2 300.8 314.1 0.00 0.1193431
2021-06-24 08:40:00 82.1 35.6 52.3 82.1 82.1 5.6 6.7 5.2 254.2 299.6 0.00 0.1243121
2021-06-24 08:45:00 82.4 32.9 50.3 82.4 82.4 3.8 8.5 5.5 247.2 290.4 0.00 0.1289855
2021-06-24 08:50:00 82.5 35.6 52.5 82.5 82.5 3.0 8.7 5.1 306.8 296.1 0.00 0.1333116
2021-06-24 08:55:00 82.7 32.2 50.0 82.7 82.7 7.6 7.6 5.4 304.1 310.2 0.00 0.1384176
2021-06-24 09:00:00 83.2 32.5 50.7 83.2 83.2 5.6 8.0 4.8 319.8 294.9 0.00 0.1433599
2021-06-24 09:05:00 83.8 33.6 52.1 83.8 83.8 4.7 6.7 4.7 229.9 307.7 0.00 0.1479183
2021-06-24 09:10:00 84.1 29.9 49.2 84.1 84.1 5.3 7.8 5.7 326.6 323.1 0.00 0.1524446
2021-06-24 09:15:00 84.5 29.3 49.0 84.5 84.5 4.9 7.4 4.6 323.4 345.5 0.00 0.1573345
2021-06-24 09:20:00 84.5 30.6 50.2 84.5 84.5 4.9 7.6 4.8 295.9 305.5 0.00 0.1626040
2021-06-24 09:25:00 84.5 30.7 50.3 84.5 84.5 5.1 8.0 5.6 310.7 308.0 0.00 0.1671444
2021-06-24 09:30:00 84.6 29.5 49.3 84.6 84.6 6.0 7.2 5.9 309.7 304.5 0.00 0.1710019
2021-06-24 09:35:00 85.3 30.0 50.3 85.3 85.3 3.7 5.6 3.7 331.4 319.5 0.00 0.1754667
2021-06-24 09:40:00 85.8 29.9 50.7 85.8 85.8 6.5 6.5 3.9 305.9 329.3 0.00 0.1801765
2021-06-24 09:45:00 85.3 31.4 51.7 85.3 85.3 4.4 6.7 5.2 288.6 303.3 0.00 0.1842391
2021-06-24 09:50:00 85.4 31.0 51.3 85.4 85.4 4.7 8.7 4.7 306.9 307.6 0.00 0.1881838
2021-06-24 09:55:00 85.9 31.2 51.9 85.9 85.9 3.3 8.1 4.6 291.8 315.3 0.00 0.1926770
2021-06-24 10:00:00 86.2 31.2 52.2 86.2 86.2 4.4 8.0 5.5 339.1 331.9 0.00 0.1972323
2021-06-24 10:05:00 86.8 28.1 49.9 86.8 86.8 3.0 7.2 3.5 330.4 16.9 0.00 0.2006643
2021-06-24 10:10:00 87.1 31.4 53.1 87.1 87.1 4.4 8.3 4.7 286.0 300.7 0.00 0.2049465
2021-06-24 10:15:00 87.4 29.9 52.1 87.4 87.4 3.0 5.5 3.1 314.9 320.1 0.00 0.2085605
2021-06-24 10:20:00 87.4 29.5 51.7 87.4 87.4 2.6 6.0 3.3 293.9 309.9 0.00 0.2129872
2021-06-24 10:25:00 87.7 28.9 51.4 87.7 87.7 4.9 7.2 3.6 297.4 308.3 0.00 0.2168300
2021-06-24 10:30:00 88.1 32.0 54.5 88.1 88.1 3.7 5.5 3.6 307.2 333.8 0.00 0.2203362
2021-06-24 10:35:00 88.1 26.1 49.0 88.1 88.1 5.8 7.1 4.4 296.2 312.6 0.00 0.2241875
2021-06-24 10:40:00 88.5 25.5 48.8 88.5 88.5 4.6 5.3 3.7 239.8 293.4 0.00 0.2276669
2021-06-24 10:45:00 90.2 25.0 49.6 90.2 90.2 0.8 4.4 2.1 52.1 197.4 0.00 0.2306394
2021-06-24 10:50:00 90.8 25.4 50.6 90.8 90.8 4.0 4.2 2.2 216.1 313.7 0.00 0.2344652
2021-06-24 10:55:00 90.8 23.5 48.5 90.8 90.8 2.1 5.5 2.8 256.3 260.0 0.00 0.2369439
2021-06-24 11:00:00 90.0 26.8 51.4 90.0 90.0 3.0 7.1 4.3 296.6 290.4 0.00 0.2398257
2021-06-24 11:05:00 89.9 27.4 51.9 89.9 89.9 2.1 5.8 3.9 228.2 262.6 0.00 0.2428923
2021-06-24 11:10:00 91.1 23.1 48.2 91.1 91.1 3.7 3.8 2.2 71.1 253.5 0.00 0.2458660
2021-06-24 11:15:00 91.6 22.7 48.2 91.6 91.6 0.0 4.6 1.5 69.4 37.0 0.00 0.2495150
2021-06-24 11:20:00 91.5 22.8 48.3 91.5 91.5 2.2 6.7 3.7 300.8 266.4 0.00 0.2519780
2021-06-24 11:25:00 91.1 25.2 50.6 91.1 91.1 6.2 6.7 4.4 287.8 265.3 0.00 0.2540972
2021-06-24 11:30:00 91.2 22.2 47.3 91.2 91.2 3.1 6.2 2.9 34.0 328.7 0.00 0.2576484
2021-06-24 11:35:00 91.9 21.1 46.5 91.9 91.9 0.0 2.2 0.7 295.6 313.0 0.00 0.2607102
2021-06-24 11:40:00 92.7 26.9 53.8 92.7 92.7 4.7 6.0 2.7 330.3 309.7 0.00 0.2625872
2021-06-24 11:45:00 92.5 22.5 48.7 92.5 92.5 2.8 5.8 2.9 298.7 310.7 0.00 0.2642104
2021-06-24 11:50:00 92.0 22.2 47.9 92.0 92.0 2.1 6.3 3.4 246.7 310.7 0.00 0.2663814
2021-06-24 11:55:00 92.2 23.5 49.7 92.2 92.2 3.3 6.9 4.2 291.8 285.9 0.00 0.2684087
2021-06-24 12:00:00 92.1 21.6 47.3 92.1 92.1 0.0 5.5 3.0 72.3 283.0 0.00 0.2693443
2021-06-24 12:05:00 93.3 20.8 47.3 93.3 93.3 2.4 4.9 2.0 173.0 72.2 0.00 0.2711477
2021-06-24 12:10:00 92.6 24.7 51.4 92.6 92.6 5.1 8.7 4.6 308.8 270.0 0.00 0.2729901
2021-06-24 12:15:00 92.7 23.6 50.2 92.7 92.7 3.0 7.2 4.2 19.4 305.4 0.00 0.2745571
2021-06-24 12:20:00 93.1 21.8 48.4 93.1 93.1 2.4 5.3 3.2 238.8 25.3 0.00 0.2763504
2021-06-24 12:25:00 93.3 21.9 48.7 93.3 93.3 0.0 7.1 2.8 264.8 267.1 0.00 0.2767214
2021-06-24 12:30:00 94.2 21.9 49.4 94.2 94.2 2.6 8.0 3.8 310.7 266.2 0.00 0.2774867
2021-06-24 12:35:00 94.1 20.0 46.9 94.1 94.1 5.8 8.3 5.2 207.6 236.7 0.00 0.2783855
2021-06-24 12:40:00 94.1 22.0 49.4 94.1 94.1 1.9 6.0 3.0 230.1 276.4 0.00 0.2794042
2021-06-24 12:45:00 93.8 21.1 48.2 93.8 93.8 4.9 9.4 5.4 321.1 282.4 0.00 0.2792355
2021-06-24 12:50:00 94.4 20.8 48.3 94.4 94.4 0.0 8.0 3.5 57.5 126.1 0.00 0.2802391
2021-06-24 12:55:00 95.6 20.2 48.4 95.6 95.6 0.8 5.6 1.5 324.3 232.9 0.00 0.2798274
2021-06-24 13:00:00 95.0 19.9 47.5 95.0 95.0 3.8 5.6 3.2 308.6 296.2 0.00 0.2806529
2021-06-24 13:05:00 94.5 20.3 47.6 94.5 94.5 6.2 7.2 4.4 241.6 284.9 0.00 0.2808639
2021-06-24 13:10:00 94.4 20.0 47.1 94.4 94.4 1.7 7.2 3.4 198.7 201.6 0.00 0.2809477
2021-06-24 13:15:00 96.1 19.3 47.6 96.1 96.1 4.4 10.1 3.6 314.0 214.9 0.00 0.2817270
2021-06-24 13:20:00 96.4 19.5 48.1 96.4 96.4 1.5 7.2 2.6 140.8 302.6 0.00 0.2805548
2021-06-24 13:25:00 95.9 20.0 48.4 95.9 95.9 6.9 9.6 4.8 287.2 268.2 0.00 0.2813784
2021-06-24 13:30:00 95.5 20.3 48.4 95.5 95.5 11.0 12.2 7.3 322.0 304.1 0.00 0.2811956
2021-06-24 13:35:00 95.8 19.5 47.6 95.8 95.8 5.1 11.2 4.2 297.4 274.9 0.00 0.2806648
2021-06-24 13:40:00 95.9 19.5 47.7 95.9 95.9 0.8 7.1 4.1 214.9 277.2 0.00 0.2806991
2021-06-24 13:45:00 97.0 18.4 47.1 97.0 97.0 4.6 5.1 3.2 181.0 228.9 0.00 0.2799368
2021-06-24 13:50:00 96.6 19.0 47.6 96.6 96.6 3.8 10.1 3.8 277.3 267.4 0.00 0.2789653
2021-06-24 13:55:00 96.6 19.3 48.0 96.6 96.6 4.6 9.0 5.9 168.4 253.6 0.00 0.2786141
2021-06-24 14:00:00 96.2 18.5 46.5 96.2 96.2 4.6 9.6 5.4 146.9 213.4 0.00 0.2767928
2021-06-24 14:05:00 96.3 20.2 49.0 96.3 96.3 3.0 9.2 3.9 297.4 227.2 0.00 0.2761314
2021-06-24 14:10:00 97.0 18.6 47.3 97.0 97.0 4.9 7.2 3.9 201.4 238.2 0.00 0.2755637
2021-06-24 14:15:00 97.2 19.9 49.3 97.2 97.2 3.8 9.9 4.4 272.0 221.2 0.00 0.2744250
2021-06-24 14:20:00 97.1 18.8 47.7 97.1 97.1 5.5 11.2 7.8 218.9 239.3 0.00 0.2729825
2021-06-24 14:25:00 97.2 18.1 46.7 97.2 97.2 7.8 9.6 6.8 208.1 222.0 0.00 0.2709088
2021-06-24 14:30:00 97.2 18.5 47.3 97.2 97.2 2.6 8.7 4.6 134.2 198.3 0.00 0.2694427
2021-06-24 14:35:00 98.0 17.9 47.2 98.0 98.0 4.4 5.6 3.3 208.1 188.9 0.00 0.2683859
2021-06-24 14:40:00 97.6 18.9 48.2 97.6 97.6 5.3 9.6 5.0 203.1 236.3 0.00 0.2667469
2021-06-24 14:45:00 98.0 18.4 47.9 98.0 98.0 6.0 8.8 5.7 230.3 259.9 0.00 0.2644210
2021-06-24 14:50:00 97.2 20.1 49.6 97.2 97.2 2.8 9.6 6.2 217.1 225.9 0.00 0.2620870
2021-06-24 14:55:00 97.6 18.5 47.8 97.6 97.6 7.2 8.5 5.1 217.8 218.0 0.00 0.2599569
2021-06-24 15:00:00 98.0 18.9 48.6 98.0 98.0 8.3 10.6 7.7 188.8 240.8 0.00 0.2584792
2021-06-24 15:05:00 97.4 18.7 47.9 97.4 97.4 6.3 11.5 6.8 222.5 220.7 0.00 0.2561578
2021-06-24 15:10:00 98.2 18.1 47.7 98.2 98.2 8.8 9.7 5.7 230.4 216.8 0.00 0.2513576
2021-06-24 15:15:00 97.6 18.6 47.8 97.6 97.6 6.0 7.4 5.1 305.2 231.3 0.00 0.2483146
2021-06-24 15:20:00 97.4 18.8 48.0 97.4 97.4 7.2 10.8 4.6 241.0 261.2 0.00 0.2476670
2021-06-24 15:25:00 97.5 20.3 50.1 97.5 97.5 4.4 9.9 6.8 262.4 248.7 0.00 0.2146389
2021-06-24 15:30:00 97.3 20.6 50.4 97.3 97.3 5.5 8.0 5.1 254.7 246.7 0.00 0.1952706
2021-06-24 15:35:00 96.7 21.0 50.3 96.7 96.7 3.5 9.2 6.0 276.6 245.0 0.00 0.2468436
2021-06-24 15:40:00 98.1 18.8 48.5 98.1 98.1 6.0 9.9 6.5 232.6 234.6 0.00 0.2412093
2021-06-24 15:45:00 98.1 18.5 48.1 98.1 98.1 9.2 12.4 7.8 232.0 241.4 0.00 0.2373083
2021-06-24 15:50:00 98.1 19.3 49.3 98.1 98.1 5.8 12.8 7.5 231.5 244.2 0.00 0.2307711
2021-06-24 15:55:00 97.5 18.4 47.5 97.5 97.5 5.1 9.6 6.1 203.3 242.3 0.00 0.2271830
2021-06-24 16:00:00 98.1 19.4 49.3 98.1 98.1 6.5 11.2 6.0 208.1 234.5 0.00 0.2234200
2021-06-24 16:05:00 98.3 19.8 50.1 98.3 98.3 6.7 12.2 7.9 242.8 230.8 0.00 0.2201931
2021-06-24 16:10:00 98.1 19.1 49.0 98.1 98.1 5.3 12.6 7.8 274.7 231.2 0.00 0.2189272
2021-06-24 16:15:00 98.0 19.4 49.3 98.0 98.0 1.7 9.7 6.3 30.7 259.2 0.00 0.2088379
2021-06-24 16:20:00 98.5 20.6 51.3 98.5 98.5 4.7 8.5 4.5 269.6 257.6 0.00 0.2085097
2021-06-24 16:25:00 98.8 18.5 48.7 98.8 98.8 10.1 13.3 7.2 282.9 238.5 0.00 0.2060998
2021-06-24 16:30:00 98.7 19.1 49.5 98.7 98.7 3.8 9.2 5.6 317.4 270.7 0.00 0.2017915
2021-06-24 16:35:00 97.4 20.3 50.1 97.4 97.4 4.0 9.6 5.9 290.3 245.5 0.00 0.0838157
2021-06-24 16:40:00 97.4 19.4 48.8 97.4 97.4 4.0 7.2 4.3 218.0 255.1 0.00 0.1432964
2021-06-24 16:45:00 99.1 19.3 50.1 99.1 99.1 4.7 6.2 2.7 256.4 250.2 0.00 0.1951067
2021-06-24 16:50:00 97.4 19.7 49.3 97.4 97.4 5.6 15.1 7.8 222.6 230.4 0.00 0.1064597
2021-06-24 16:55:00 98.1 19.6 49.7 98.1 98.1 6.7 8.1 4.8 219.2 218.2 0.00 0.1466753
2021-06-24 17:00:00 98.1 19.3 49.3 98.1 98.1 8.3 8.8 6.2 184.0 227.2 0.00 0.1839371
2021-06-24 17:05:00 98.3 20.9 51.5 98.3 98.3 4.4 7.2 4.8 242.0 244.9 0.00 0.1763377
2021-06-24 17:10:00 98.3 18.9 48.7 98.3 98.3 6.5 10.1 7.4 204.5 231.4 0.00 0.1682802
2021-06-24 17:15:00 98.5 19.1 49.2 98.5 98.5 9.2 11.3 6.3 258.4 261.4 0.00 0.1596559
2021-06-24 17:20:00 98.0 19.2 49.0 98.0 98.0 7.1 11.2 8.6 201.9 246.5 0.00 0.1539955
2021-06-24 17:25:00 97.7 19.5 49.1 97.7 97.7 5.1 9.0 6.9 239.4 223.6 0.00 0.1482035
2021-06-24 17:30:00 98.2 19.8 50.0 98.2 98.2 8.7 15.8 7.3 230.3 241.3 0.00 0.1433016
2021-06-24 17:35:00 98.0 20.6 50.9 98.0 98.0 8.5 13.3 8.5 269.7 245.2 0.00 0.1376617
2021-06-24 17:40:00 97.3 21.9 52.0 97.3 97.3 5.5 11.3 8.3 280.9 247.0 0.00 0.1329953
2021-06-24 17:45:00 97.0 20.6 50.1 97.0 97.0 7.1 11.0 7.8 222.0 232.0 0.00 0.1305365
2021-06-24 17:50:00 97.6 20.4 50.4 97.6 97.6 4.4 8.1 4.7 268.1 243.7 0.00 0.1254113
2021-06-24 17:55:00 98.1 20.3 50.6 98.1 98.1 8.3 10.3 6.2 226.1 246.5 0.00 0.1204602
2021-06-24 18:00:00 97.3 20.8 50.6 97.3 97.3 4.4 12.8 8.5 250.9 250.7 0.00 0.1141402
2021-06-24 18:05:00 97.5 20.8 50.8 97.5 97.5 8.5 10.5 6.9 299.9 260.0 0.00 0.1003456
2021-06-24 18:10:00 97.0 21.4 51.1 97.0 97.0 3.3 11.2 5.5 189.3 260.8 0.00 0.1060864
2021-06-24 18:15:00 97.5 21.7 51.9 97.5 97.5 3.5 6.2 3.8 273.1 258.0 0.00 0.1001461
2021-06-24 18:20:00 97.5 21.1 51.2 97.5 97.5 11.9 11.9 6.4 245.2 257.4 0.00 0.0942659
2021-06-24 18:25:00 96.6 20.9 50.2 96.6 96.6 9.0 11.7 8.7 269.7 242.5 0.00 0.0899362
2021-06-24 18:30:00 96.9 21.3 50.9 96.9 96.9 8.0 10.3 6.4 309.0 286.2 0.00 0.0838150
2021-06-24 18:35:00 96.4 23.0 52.6 96.4 96.4 3.5 12.2 7.4 338.2 272.7 0.00 0.0797676
2021-06-24 18:40:00 95.5 22.7 51.4 95.5 95.5 5.6 13.3 7.0 249.6 259.6 0.00 0.0746543
2021-06-24 18:45:00 95.7 21.7 50.5 95.7 95.7 9.2 9.2 6.0 224.3 246.6 0.00 0.0702305
2021-06-24 18:50:00 95.0 23.0 51.4 95.0 95.0 4.0 11.0 6.8 314.0 250.5 0.00 0.0647793
2021-06-24 18:55:00 94.9 21.5 49.5 94.9 94.9 4.7 9.9 6.7 219.0 258.9 0.00 0.0594567
2021-06-24 19:00:00 95.5 21.3 49.7 95.5 95.5 7.2 8.8 5.5 234.9 253.5 0.00 0.0550856
2021-06-24 19:05:00 95.9 21.9 50.8 95.9 95.9 6.7 8.8 6.0 230.2 242.3 0.00 0.0507852
2021-06-24 19:10:00 95.6 21.6 50.2 95.6 95.6 9.0 9.2 6.8 298.8 249.9 0.00 0.0469084
2021-06-24 19:15:00 95.2 21.5 49.8 95.2 95.2 11.5 12.2 7.9 216.3 247.0 0.00 0.0427824
2021-06-24 19:20:00 95.2 21.6 49.8 95.2 95.2 8.0 11.3 7.8 259.1 247.3 0.00 0.0386519

Data is courtesy of the NM Climate Center. DO NOT USE IN LEGAL PROCEEDINGS.